Time;durP1;ratioP1;P1;durP2;ratioP2;P2;SDS_P1;SDS_P2;PMS_P1;PMS_P2;Temp;Humidity;BMP_temperature;BMP_pressure;BME280_temperature;BME280_humidity;BME280_pressure;Samples;Min_cycle;Max_cycle;Signal;HPM_P1;HPM_P2
2024/02/28 00:01:52;;;;;;;7.57;2.63;;;;;;;;;;4897336;29;20040;-79
2024/02/28 00:04:22;;;;;;;5.63;1.92;;;;;;;;;;4896103;29;20400;-80
2024/02/28 00:06:52;;;;;;;6.80;1.80;;;;;;;;;;4895192;29;20068;-79
2024/02/28 00:09:23;;;;;;;4.63;2.08;;;;;;;;;;4896990;29;20045;-80
2024/02/28 00:11:53;;;;;;;14.73;5.90;;;;;;;;;;4897080;29;20380;-81
2024/02/28 00:14:23;;;;;;;14.73;8.35;;;;;;;;;;4895361;29;20041;-80
2024/02/28 00:16:53;;;;;;;15.07;8.05;;;;;;;;;;4895789;29;20077;-79
2024/02/28 00:19:25;;;;;;;16.45;6.43;;;;;;;;;;4897053;29;20055;-80
2024/02/28 00:21:55;;;;;;;12.55;6.03;;;;;;;;;;4896807;29;20530;-80
2024/02/28 00:24:26;;;;;;;9.70;4.45;;;;;;;;;;4896598;29;20049;-80
2024/02/28 00:26:56;;;;;;;8.98;3.22;;;;;;;;;;4897000;29;20044;-79
2024/02/28 00:29:25;;;;;;;7.50;2.60;;;;;;;;;;4895217;29;20487;-80
2024/02/28 00:31:55;;;;;;;10.10;2.00;;;;;;;;;;4895125;29;20459;-78
2024/02/28 00:34:25;;;;;;;6.03;1.88;;;;;;;;;;4896521;29;20052;-79
2024/02/28 00:36:55;;;;;;;6.13;2.22;;;;;;;;;;4896714;29;20059;-80
2024/02/28 00:39:25;;;;;;;11.88;3.45;;;;;;;;;;4895400;29;20048;-80
2024/02/28 00:41:55;;;;;;;5.25;2.40;;;;;;;;;;4896165;29;20064;-81
2024/02/28 00:44:27;;;;;;;8.35;2.67;;;;;;;;;;4896238;29;20056;-80
2024/02/28 00:46:58;;;;;;;7.07;2.40;;;;;;;;;;4896289;29;20518;-79
2024/02/28 00:49:28;;;;;;;11.32;2.30;;;;;;;;;;4896574;29;20484;-80
2024/02/28 00:51:58;;;;;;;5.22;2.55;;;;;;;;;;4896345;29;20057;-83
2024/02/28 00:54:28;;;;;;;6.88;2.28;;;;;;;;;;4888347;29;20555;-80
2024/02/28 00:56:59;;;;;;;8.70;2.10;;;;;;;;;;4877698;29;20153;-80
2024/02/28 00:59:32;;;;;;;6.40;2.20;;;;;;;;;;4861879;29;20053;-79
2024/02/28 01:02:03;;;;;;;7.57;1.90;;;;;;;;;;4877654;29;20045;-79
2024/02/28 01:04:33;;;;;;;6.88;1.98;;;;;;;;;;4876832;29;20488;-80
2024/02/28 01:07:03;;;;;;;7.18;1.83;;;;;;;;;;4876342;29;20053;-79
2024/02/28 01:09:33;;;;;;;9.15;2.30;;;;;;;;;;4877433;29;20053;-80
2024/02/28 01:12:03;;;;;;;6.50;2.53;;;;;;;;;;4875987;29;20061;-80
2024/02/28 01:14:34;;;;;;;12.70;2.83;;;;;;;;;;4892103;29;20048;-80
2024/02/28 01:17:05;;;;;;;6.20;2.13;;;;;;;;;;4896033;29;20395;-79
2024/02/28 01:19:36;;;;;;;5.45;2.15;;;;;;;;;;4884671;29;20514;-81
2024/02/28 01:22:06;;;;;;;5.45;2.13;;;;;;;;;;4879186;29;20060;-79
2024/02/28 01:24:36;;;;;;;5.45;2.70;;;;;;;;;;4895320;29;20423;-80
2024/02/28 01:27:07;;;;;;;8.25;2.03;;;;;;;;;;4875241;29;20057;-79
2024/02/28 01:29:40;;;;;;;9.73;2.40;;;;;;;;;;4884365;29;20438;-78
2024/02/28 01:32:11;;;;;;;20.88;2.78;;;;;;;;;;4891619;29;20045;-80
2024/02/28 01:34:41;;;;;;;12.27;2.22;;;;;;;;;;4888295;29;20419;-80
2024/02/28 01:37:11;;;;;;;10.60;2.60;;;;;;;;;;4878177;29;20055;-80
2024/02/28 01:39:41;;;;;;;6.43;2.15;;;;;;;;;;4877288;29;20056;-81
2024/02/28 01:42:15;;;;;;;12.75;2.58;;;;;;;;;;4895660;29;20056;-80
2024/02/28 01:44:48;;;;;;;11.75;2.22;;;;;;;;;;4895696;29;20451;-79
2024/02/28 01:47:20;;;;;;;8.98;2.30;;;;;;;;;;4895843;29;20048;-79
2024/02/28 01:49:50;;;;;;;12.60;2.35;;;;;;;;;;4895984;29;20049;-81
2024/02/28 01:52:23;;;;;;;16.17;3.03;;;;;;;;;;4896862;29;20048;-80
2024/02/28 01:54:54;;;;;;;10.35;2.20;;;;;;;;;;4903556;29;20048;-79
2024/02/28 01:57:25;;;;;;;8.40;2.95;;;;;;;;;;4920580;29;20063;-79
2024/02/28 01:59:56;;;;;;;7.78;2.70;;;;;;;;;;4918640;29;20052;-81
2024/02/28 02:02:27;;;;;;;8.77;2.17;;;;;;;;;;4913565;29;20055;-82
2024/02/28 02:04:58;;;;;;;11.07;3.15;;;;;;;;;;4901971;29;20060;-81
2024/02/28 02:07:28;;;;;;;6.15;2.22;;;;;;;;;;4902434;29;20387;-80
2024/02/28 02:09:58;;;;;;;16.58;2.45;;;;;;;;;;4901457;29;20466;-81
2024/02/28 02:12:28;;;;;;;14.77;2.25;;;;;;;;;;4901208;29;20056;-81
2024/02/28 02:14:58;;;;;;;9.52;2.40;;;;;;;;;;4900999;29;20052;-81
2024/02/28 02:17:28;;;;;;;9.90;1.90;;;;;;;;;;4901633;29;20048;-82
2024/02/28 02:20:00;;;;;;;12.63;2.13;;;;;;;;;;4901438;29;20067;-80
2024/02/28 02:22:40;;;;;;;9.85;2.15;;;;;;;;;;4901174;29;20380;-80
2024/02/28 02:25:10;;;;;;;14.27;2.03;;;;;;;;;;4901695;29;20055;-79
2024/02/28 02:27:41;;;;;;;6.45;2.08;;;;;;;;;;4901245;29;20051;-80
2024/02/28 02:30:12;;;;;;;7.28;2.03;;;;;;;;;;4901250;29;20052;-80
2024/02/28 02:32:42;;;;;;;9.90;2.42;;;;;;;;;;4900963;29;20049;-80
2024/02/28 02:35:12;;;;;;;4.28;1.83;;;;;;;;;;4900776;29;20045;-80
2024/02/28 02:37:48;;;;;;;7.70;2.25;;;;;;;;;;4900931;29;20044;-81
2024/02/28 02:40:19;;;;;;;11.20;2.00;;;;;;;;;;4899147;29;20407;-79
2024/02/28 02:42:50;;;;;;;7.10;1.95;;;;;;;;;;4901055;29;20044;-81
2024/02/28 02:45:20;;;;;;;8.63;2.17;;;;;;;;;;4900683;29;20052;-79
2024/02/28 02:47:53;;;;;;;15.05;2.00;;;;;;;;;;4899482;29;20059;-80
2024/02/28 02:50:23;;;;;;;7.68;1.92;;;;;;;;;;4884514;29;20044;-81
2024/02/28 02:52:53;;;;;;;4.80;1.85;;;;;;;;;;4900141;29;20447;-81
2024/02/28 02:55:23;;;;;;;4.65;1.58;;;;;;;;;;4899893;29;20404;-80
2024/02/28 02:57:54;;;;;;;6.60;1.80;;;;;;;;;;4900301;29;20059;-81
2024/02/28 03:00:24;;;;;;;5.70;1.77;;;;;;;;;;4883104;29;20048;-81
2024/02/28 03:02:54;;;;;;;7.18;1.88;;;;;;;;;;4898399;29;20052;-79
2024/02/28 03:05:24;;;;;;;6.80;1.83;;;;;;;;;;4898256;29;20068;-80
2024/02/28 03:07:54;;;;;;;9.30;2.67;;;;;;;;;;4899516;29;20060;-83
2024/02/28 03:10:24;;;;;;;5.95;2.38;;;;;;;;;;4899004;29;20061;-81
2024/02/28 03:12:54;;;;;;;7.53;2.00;;;;;;;;;;4899996;29;20526;-82
2024/02/28 03:15:24;;;;;;;8.55;1.83;;;;;;;;;;4900249;29;20056;-81
2024/02/28 03:17:54;;;;;;;7.18;1.98;;;;;;;;;;4899045;29;20563;-80
2024/02/28 03:20:26;;;;;;;11.00;2.53;;;;;;;;;;4900183;29;20056;-81
2024/02/28 03:22:56;;;;;;;9.20;1.50;;;;;;;;;;4899994;29;20376;-82
2024/02/28 03:25:28;;;;;;;4.40;1.77;;;;;;;;;;4899612;29;20059;-81
2024/02/28 03:27:59;;;;;;;9.48;2.10;;;;;;;;;;4900090;29;20491;-81
2024/02/28 03:30:30;;;;;;;9.30;1.95;;;;;;;;;;4898865;29;20499;-80
2024/02/28 03:33:01;;;;;;;4.82;2.13;;;;;;;;;;4899300;29;20052;-81
2024/02/28 03:35:31;;;;;;;5.68;1.92;;;;;;;;;;4898976;29;20056;-79
2024/02/28 03:38:02;;;;;;;5.63;1.80;;;;;;;;;;4897544;29;20056;-81
2024/02/28 03:40:33;;;;;;;9.85;2.40;;;;;;;;;;4897758;29;20500;-83
2024/02/28 03:43:04;;;;;;;7.00;2.10;;;;;;;;;;4899433;29;20055;-81
2024/02/28 03:45:39;;;;;;;10.82;2.88;;;;;;;;;;4897452;29;20053;-80
2024/02/28 03:48:10;;;;;;;8.40;2.97;;;;;;;;;;4897510;29;20056;-82
2024/02/28 03:50:41;;;;;;;11.38;3.00;;;;;;;;;;4896483;29;20060;-82
2024/02/28 03:53:11;;;;;;;12.90;3.03;;;;;;;;;;4896681;29;20067;-81
2024/02/28 03:55:43;;;;;;;8.55;2.90;;;;;;;;;;4897704;29;20419;-80
2024/02/28 03:58:15;;;;;;;7.65;2.53;;;;;;;;;;4899710;29;20372;-80
2024/02/28 04:00:46;;;;;;;11.57;3.42;;;;;;;;;;4901005;29;20057;-80
2024/02/28 04:03:16;;;;;;;12.05;2.78;;;;;;;;;;4901465;29;20067;-80
2024/02/28 04:05:46;;;;;;;8.82;2.53;;;;;;;;;;4901036;29;20472;-80
2024/02/28 04:08:16;;;;;;;12.18;2.63;;;;;;;;;;4911694;29;20064;-79
2024/02/28 04:10:47;;;;;;;8.48;2.20;;;;;;;;;;4911429;29;20056;-80
2024/02/28 04:13:19;;;;;;;9.75;2.20;;;;;;;;;;4913233;29;20049;-77
2024/02/28 04:15:50;;;;;;;12.25;2.33;;;;;;;;;;4914290;29;20049;-80
2024/02/28 04:18:21;;;;;;;14.48;2.80;;;;;;;;;;4902917;29;20503;-82
2024/02/28 04:20:51;;;;;;;9.10;2.58;;;;;;;;;;4898510;29;20514;-82
2024/02/28 04:23:22;;;;;;;7.97;1.90;;;;;;;;;;4899195;29;20040;-81
2024/02/28 04:25:53;;;;;;;6.47;1.80;;;;;;;;;;4898310;29;20071;-81
2024/02/28 04:28:23;;;;;;;6.18;1.83;;;;;;;;;;4899006;29;20053;-83
2024/02/28 04:30:53;;;;;;;5.72;1.95;;;;;;;;;;4898474;29;20060;-82
2024/02/28 04:33:23;;;;;;;4.07;1.88;;;;;;;;;;4898439;29;20048;-79
2024/02/28 04:35:54;;;;;;;15.63;3.10;;;;;;;;;;4898636;29;20057;-82
2024/02/28 04:38:25;;;;;;;6.90;2.83;;;;;;;;;;4898237;29;20053;-79
2024/02/28 04:40:55;;;;;;;9.35;3.38;;;;;;;;;;4898454;29;20049;-80
2024/02/28 04:43:25;;;;;;;6.25;2.50;;;;;;;;;;4898169;29;20068;-80
2024/02/28 04:45:54;;;;;;;6.90;2.78;;;;;;;;;;4898940;29;20395;-80
2024/02/28 04:48:24;;;;;;;12.07;3.35;;;;;;;;;;4898600;29;20057;-81
2024/02/28 04:50:55;;;;;;;10.60;3.03;;;;;;;;;;4898189;29;20064;-82
2024/02/28 04:53:25;;;;;;;5.03;2.75;;;;;;;;;;4897221;29;20079;-81
2024/02/28 04:55:55;;;;;;;9.13;2.72;;;;;;;;;;4897483;29;20056;-81
2024/02/28 04:58:25;;;;;;;8.23;2.75;;;;;;;;;;4899143;29;20065;-82
2024/02/28 05:00:55;;;;;;;14.00;3.30;;;;;;;;;;4896849;29;20046;-84
2024/02/28 05:03:25;;;;;;;11.57;2.80;;;;;;;;;;4882206;29;20048;-81
2024/02/28 05:05:55;;;;;;;7.90;2.90;;;;;;;;;;4899205;29;20044;-81
2024/02/28 05:08:27;;;;;;;10.50;3.35;;;;;;;;;;4898134;29;20404;-83
2024/02/28 05:10:58;;;;;;;9.32;3.42;;;;;;;;;;4898195;29;20044;-81
2024/02/28 05:13:27;;;;;;;7.95;2.97;;;;;;;;;;4897413;29;20067;-81
2024/02/28 05:15:58;;;;;;;9.32;2.83;;;;;;;;;;4897582;29;20060;-82
2024/02/28 05:18:28;;;;;;;11.32;3.03;;;;;;;;;;4897599;29;20068;-81
2024/02/28 05:21:01;;;;;;;12.13;3.47;;;;;;;;;;4897481;29;20059;-80
2024/02/28 05:23:31;;;;;;;8.82;2.92;;;;;;;;;;4881536;29;20055;-81
2024/02/28 05:26:03;;;;;;;7.00;2.50;;;;;;;;;;4897779;29;20055;-81
2024/02/28 05:28:35;;;;;;;10.32;2.92;;;;;;;;;;4898583;29;20364;-80
2024/02/28 05:31:24;;;;;;;10.48;3.33;;;;;;;;;;4897502;29;20052;-82
2024/02/28 05:33:59;;;;;;;13.55;3.13;;;;;;;;;;4897370;29;20059;-82
2024/02/28 05:36:30;;;;;;;14.05;2.92;;;;;;;;;;4896838;29;20049;-80
2024/02/28 05:39:01;;;;;;;5.97;2.63;;;;;;;;;;4895855;29;20040;-80
2024/02/28 05:41:32;;;;;;;9.65;3.03;;;;;;;;;;4898188;29;20484;-80
2024/02/28 05:44:02;;;;;;;8.13;2.60;;;;;;;;;;4897810;29;20067;-82
2024/02/28 05:46:33;;;;;;;9.40;2.83;;;;;;;;;;4897854;29;20044;-83
2024/02/28 05:49:05;;;;;;;7.90;2.92;;;;;;;;;;4897791;29;20049;-79
2024/02/28 05:51:35;;;;;;;6.95;2.80;;;;;;;;;;4897981;29;20055;-80
2024/02/28 05:54:06;;;;;;;9.43;2.83;;;;;;;;;;4896934;29;20064;-80
2024/02/28 05:56:36;;;;;;;8.48;2.72;;;;;;;;;;4897357;29;20067;-81
2024/02/28 05:59:06;;;;;;;6.80;2.92;;;;;;;;;;4897394;29;20052;-80
2024/02/28 06:01:37;;;;;;;6.53;2.50;;;;;;;;;;4897650;29;20052;-80
2024/02/28 06:04:08;;;;;;;11.88;2.70;;;;;;;;;;4897004;29;20052;-83
2024/02/28 06:06:39;;;;;;;8.68;2.65;;;;;;;;;;4898220;29;20055;-80
2024/02/28 06:09:10;;;;;;;6.70;2.65;;;;;;;;;;4881400;29;20056;-81
2024/02/28 06:11:40;;;;;;;5.85;2.53;;;;;;;;;;4879987;29;20434;-82
2024/02/28 06:14:10;;;;;;;9.73;2.92;;;;;;;;;;4896558;29;20356;-82
2024/02/28 06:16:40;;;;;;;8.55;2.42;;;;;;;;;;4896984;29;20056;-80
2024/02/28 06:19:10;;;;;;;6.60;2.45;;;;;;;;;;4897401;29;20052;-81
2024/02/28 06:21:40;;;;;;;6.78;2.78;;;;;;;;;;4897262;29;20064;-82
2024/02/28 06:24:10;;;;;;;5.63;2.40;;;;;;;;;;4879739;29;20444;-83
2024/02/28 06:26:43;;;;;;;7.65;2.28;;;;;;;;;;4896478;29;20067;-81
2024/02/28 06:29:18;;;;;;;5.93;2.40;;;;;;;;;;4897666;29;20040;-83
2024/02/28 06:31:52;;;;;;;8.88;2.78;;;;;;;;;;4897545;29;20052;-83
2024/02/28 06:34:22;;;;;;;7.25;2.78;;;;;;;;;;4897390;29;20053;-80
2024/02/28 06:36:53;;;;;;;6.75;2.55;;;;;;;;;;4896377;29;20415;-79
2024/02/28 06:39:25;;;;;;;7.82;2.60;;;;;;;;;;4899193;29;20048;-81
2024/02/28 06:41:55;;;;;;;13.63;2.85;;;;;;;;;;4900342;29;20052;-80
2024/02/28 06:44:24;;;;;;;11.50;2.45;;;;;;;;;;4899853;29;20055;-82
2024/02/28 06:46:54;;;;;;;8.10;2.65;;;;;;;;;;4900405;29;20416;-82
2024/02/28 06:49:25;;;;;;;10.57;2.97;;;;;;;;;;4899976;29;20056;-81
2024/02/28 06:51:59;;;;;;;8.38;2.88;;;;;;;;;;4900585;29;20126;-81
2024/02/28 06:54:30;;;;;;;7.15;2.80;;;;;;;;;;4900686;29;20044;-81
2024/02/28 06:56:59;;;;;;;6.93;2.63;;;;;;;;;;4899692;29;20049;-81
2024/02/28 06:59:31;;;;;;;11.45;2.55;;;;;;;;;;4899833;29;20060;-78
2024/02/28 07:02:01;;;;;;;7.15;2.30;;;;;;;;;;4900354;29;20510;-80
2024/02/28 07:04:32;;;;;;;6.40;2.15;;;;;;;;;;4899650;29;20126;-80
2024/02/28 07:07:02;;;;;;;4.90;2.22;;;;;;;;;;4899467;29;20072;-82
2024/02/28 07:09:35;;;;;;;5.93;2.28;;;;;;;;;;4900013;29;20061;-81
2024/02/28 07:12:05;;;;;;;5.53;2.00;;;;;;;;;;4900209;29;20048;-80
2024/02/28 07:14:35;;;;;;;6.88;2.40;;;;;;;;;;4882891;29;20060;-80
2024/02/28 07:17:06;;;;;;;8.05;2.45;;;;;;;;;;4899424;29;20059;-81
2024/02/28 07:19:37;;;;;;;4.20;2.03;;;;;;;;;;4897882;29;20056;-80
2024/02/28 07:22:07;;;;;;;8.15;2.47;;;;;;;;;;4899436;29;20060;-81
2024/02/28 07:24:37;;;;;;;3.78;2.13;;;;;;;;;;4899522;29;20052;-81
2024/02/28 07:27:08;;;;;;;7.82;2.20;;;;;;;;;;4899510;29;20439;-81
2024/02/28 07:29:39;;;;;;;6.65;2.40;;;;;;;;;;4900296;29;20049;-84
2024/02/28 07:32:09;;;;;;;8.30;2.40;;;;;;;;;;4899309;29;20060;-78
2024/02/28 07:34:39;;;;;;;6.32;2.28;;;;;;;;;;4899496;29;20059;-83
2024/02/28 07:37:10;;;;;;;7.00;2.72;;;;;;;;;;4899326;29;20048;-78
2024/02/28 07:39:41;;;;;;;10.07;2.55;;;;;;;;;;4899420;29;20159;-80
2024/02/28 07:42:10;;;;;;;7.15;2.40;;;;;;;;;;4899144;29;20061;-80
2024/02/28 07:44:41;;;;;;;7.95;2.42;;;;;;;;;;4898561;29;20418;-80
2024/02/28 07:47:11;;;;;;;4.72;2.47;;;;;;;;;;4899466;29;20052;-81
2024/02/28 07:49:40;;;;;;;10.30;2.78;;;;;;;;;;4897621;29;20060;-81
2024/02/28 07:52:11;;;;;;;9.32;2.65;;;;;;;;;;4899494;29;20063;-80
2024/02/28 07:54:44;;;;;;;9.38;3.38;;;;;;;;;;4900048;29;20530;-82
2024/02/28 07:57:15;;;;;;;5.80;2.55;;;;;;;;;;4898815;29;20052;-82
2024/02/28 07:59:46;;;;;;;8.02;2.75;;;;;;;;;;4899390;29;20479;-78
2024/02/28 08:02:15;;;;;;;9.85;3.00;;;;;;;;;;4896429;29;20385;-79
2024/02/28 08:04:47;;;;;;;6.20;2.75;;;;;;;;;;4898962;29;20051;-82
2024/02/28 08:07:18;;;;;;;8.05;3.20;;;;;;;;;;4899205;29;20056;-79
2024/02/28 08:09:49;;;;;;;7.05;3.50;;;;;;;;;;4898885;29;20060;-82
2024/02/28 08:12:19;;;;;;;11.70;3.33;;;;;;;;;;4898455;29;20392;-81
2024/02/28 08:14:49;;;;;;;13.95;2.97;;;;;;;;;;4897861;29;20075;-80
2024/02/28 08:17:18;;;;;;;10.50;3.92;;;;;;;;;;4898388;29;20057;-81
2024/02/28 08:19:48;;;;;;;27.85;4.15;;;;;;;;;;4897404;29;20061;-79
2024/02/28 08:22:19;;;;;;;27.30;3.33;;;;;;;;;;4899149;29;20059;-79
2024/02/28 08:24:51;;;;;;;44.17;3.13;;;;;;;;;;4900800;29;20060;-79
2024/02/28 08:27:23;;;;;;;19.25;2.03;;;;;;;;;;4897534;29;20538;-80
2024/02/28 08:29:54;;;;;;;22.00;2.53;;;;;;;;;;4897884;29;20052;-80
2024/02/28 08:32:23;;;;;;;21.73;3.28;;;;;;;;;;4911659;29;20063;-80
2024/02/28 08:34:56;;;;;;;15.77;2.65;;;;;;;;;;4902482;29;20048;-79
2024/02/28 08:37:30;;;;;;;11.05;2.33;;;;;;;;;;4898252;29;20536;-79
2024/02/28 08:40:00;;;;;;;31.35;3.35;;;;;;;;;;4912343;29;20057;-79
2024/02/28 08:42:31;;;;;;;9.52;3.13;;;;;;;;;;4898580;29;20114;-80
2024/02/28 08:45:03;;;;;;;24.77;3.28;;;;;;;;;;4898574;29;20076;-80
2024/02/28 08:47:34;;;;;;;20.77;3.80;;;;;;;;;;4898648;29;20067;-81
2024/02/28 08:50:04;;;;;;;18.77;3.65;;;;;;;;;;4898892;29;20060;-82
2024/02/28 08:52:34;;;;;;;12.23;3.17;;;;;;;;;;4896919;29;20063;-81
2024/02/28 08:55:06;;;;;;;16.98;4.05;;;;;;;;;;4895683;29;20097;-81
2024/02/28 08:57:36;;;;;;;17.60;3.30;;;;;;;;;;4896125;29;20071;-80
2024/02/28 09:00:09;;;;;;;38.83;4.13;;;;;;;;;;4896234;29;20057;-81
2024/02/28 09:02:39;;;;;;;20.63;3.58;;;;;;;;;;4895408;29;20060;-82
2024/02/28 09:05:09;;;;;;;9.95;3.42;;;;;;;;;;4896211;29;20515;-82
2024/02/28 09:07:40;;;;;;;9.27;3.20;;;;;;;;;;4896009;29;20420;-84
2024/02/28 09:10:10;;;;;;;6.53;3.38;;;;;;;;;;4896021;29;20060;-80
2024/02/28 09:12:41;;;;;;;15.52;3.15;;;;;;;;;;4897292;29;20040;-80
2024/02/28 09:15:11;;;;;;;22.23;3.30;;;;;;;;;;4898186;29;20407;-80
2024/02/28 09:17:41;;;;;;;15.13;3.30;;;;;;;;;;4897485;29;20057;-83
2024/02/28 09:20:12;;;;;;;12.48;3.22;;;;;;;;;;4897307;29;20053;-83
2024/02/28 09:22:43;;;;;;;10.80;3.38;;;;;;;;;;4897997;29;20507;-81
2024/02/28 09:25:15;;;;;;;12.45;3.03;;;;;;;;;;4898345;29;20064;-80
2024/02/28 09:27:48;;;;;;;14.02;3.35;;;;;;;;;;4897743;29;20519;-79
2024/02/28 09:30:18;;;;;;;24.02;3.67;;;;;;;;;;4898148;29;20048;-80
2024/02/28 09:32:49;;;;;;;34.42;3.88;;;;;;;;;;4912336;29;20057;-80
2024/02/28 09:35:20;;;;;;;29.02;3.90;;;;;;;;;;4898008;29;20057;-82
2024/02/28 09:37:50;;;;;;;15.07;3.22;;;;;;;;;;4897703;29;20059;-81
2024/02/28 09:40:22;;;;;;;9.13;3.70;;;;;;;;;;4898127;29;20068;-81
2024/02/28 09:43:03;;;;;;;8.85;4.07;;;;;;;;;;4897660;29;20052;-81
2024/02/28 09:45:34;;;;;;;25.70;5.07;;;;;;;;;;4897885;29;20053;-80
2024/02/28 09:48:05;;;;;;;12.07;4.15;;;;;;;;;;4897985;29;20060;-84
2024/02/28 09:50:38;;;;;;;17.23;4.25;;;;;;;;;;4896456;29;20063;-80
2024/02/28 09:53:08;;;;;;;16.60;4.82;;;;;;;;;;4898345;29;20053;-80
2024/02/28 09:55:39;;;;;;;13.10;4.00;;;;;;;;;;4897374;29;20065;-81
2024/02/28 09:58:11;;;;;;;17.33;4.85;;;;;;;;;;4897999;29;20056;-80
2024/02/28 10:00:43;;;;;;;12.05;4.78;;;;;;;;;;4898067;29;20507;-80
2024/02/28 10:03:23;;;;;;;9.20;3.63;;;;;;;;;;4896651;29;20512;-81
2024/02/28 10:05:54;;;;;;;10.38;3.83;;;;;;;;;;4897329;29;20060;-80
2024/02/28 10:08:24;;;;;;;9.73;4.20;;;;;;;;;;4897148;29;20489;-80
2024/02/28 10:10:55;;;;;;;9.15;5.25;;;;;;;;;;4897376;29;20100;-81
2024/02/28 10:13:26;;;;;;;11.43;4.05;;;;;;;;;;4898970;29;20052;-80
2024/02/28 10:15:57;;;;;;;11.32;4.50;;;;;;;;;;4901182;29;20060;-80
2024/02/28 10:18:27;;;;;;;11.57;4.57;;;;;;;;;;4901375;29;20053;-83
2024/02/28 10:20:57;;;;;;;9.20;4.35;;;;;;;;;;4900646;29;20060;-80
2024/02/28 10:23:28;;;;;;;10.45;4.40;;;;;;;;;;4901309;29;20060;-79
2024/02/28 10:26:01;;;;;;;10.00;4.38;;;;;;;;;;4900994;29;20052;-84
2024/02/28 10:28:31;;;;;;;8.88;4.03;;;;;;;;;;4900926;29;20056;-79
2024/02/28 10:31:04;;;;;;;9.10;3.85;;;;;;;;;;4901208;29;20373;-79
2024/02/28 10:33:37;;;;;;;7.75;3.53;;;;;;;;;;4904958;29;20513;-80
2024/02/28 10:36:08;;;;;;;9.50;3.92;;;;;;;;;;4904215;29;20049;-80
2024/02/28 10:38:38;;;;;;;8.40;3.75;;;;;;;;;;4901153;29;20056;-79
2024/02/28 10:41:12;;;;;;;7.50;3.53;;;;;;;;;;4910401;29;20049;-78
2024/02/28 10:43:44;;;;;;;5.93;2.95;;;;;;;;;;4926905;29;20052;-79
2024/02/28 10:46:16;;;;;;;7.18;3.92;;;;;;;;;;4912885;29;20059;-79
2024/02/28 10:49:10;;;;;;;7.97;3.30;;;;;;;;;;4912082;29;20054;-78
2024/02/28 10:51:48;;;;;;;6.82;3.30;;;;;;;;;;4899251;29;20052;-81
2024/02/28 10:54:25;;;;;;;7.78;3.20;;;;;;;;;;4898352;29;20043;-79
2024/02/28 10:56:56;;;;;;;6.07;3.33;;;;;;;;;;4900096;29;20064;-82
2024/02/28 10:59:28;;;;;;;13.70;4.00;;;;;;;;;;4896393;29;20523;-79
2024/02/28 11:01:59;;;;;;;12.70;3.75;;;;;;;;;;4891681;29;20048;-78
2024/02/28 11:04:29;;;;;;;8.38;3.63;;;;;;;;;;4887700;29;20053;-79
2024/02/28 11:07:01;;;;;;;5.75;3.20;;;;;;;;;;4898197;29;20051;-79
2024/02/28 11:09:32;;;;;;;;;;;;;;;;;;4881916;29;20052;-79
2024/02/28 11:12:06;;;;;;;8.65;3.47;;;;;;;;;;4898233;29;19923;-82
2024/02/28 11:14:36;;;;;;;7.82;4.00;;;;;;;;;;4895490;29;20045;-79
2024/02/28 11:17:06;;;;;;;7.68;3.30;;;;;;;;;;4897562;29;20048;-80
2024/02/28 11:19:36;;;;;;;5.85;2.67;;;;;;;;;;4897337;29;20044;-80
2024/02/28 11:22:06;;;;;;;5.32;2.53;;;;;;;;;;4897549;29;20396;-81
2024/02/28 11:24:41;;;;;;;9.43;2.42;;;;;;;;;;4897880;29;20075;-80
2024/02/28 11:27:15;;;;;;;4.35;2.17;;;;;;;;;;4897769;29;20521;-81
2024/02/28 11:29:46;;;;;;;4.75;2.15;;;;;;;;;;4898635;29;20052;-82
2024/02/28 11:32:25;;;;;;;4.75;1.60;;;;;;;;;;4880681;29;20052;-79
2024/02/28 11:34:57;;;;;;;3.78;1.75;;;;;;;;;;4889968;29;20052;-81
2024/02/28 11:37:27;;;;;;;5.00;1.80;;;;;;;;;;4898271;29;20060;-80
2024/02/28 11:39:57;;;;;;;7.03;2.58;;;;;;;;;;4881618;29;20395;-81
2024/02/28 11:42:28;;;;;;;5.63;2.38;;;;;;;;;;4898309;29;20407;-79
2024/02/28 11:45:00;;;;;;;6.32;2.95;;;;;;;;;;4896817;29;20036;-79
2024/02/28 11:47:30;;;;;;;6.70;3.10;;;;;;;;;;4895006;29;20412;-80
2024/02/28 11:50:02;;;;;;;6.78;2.85;;;;;;;;;;4898844;29;20044;-80
2024/02/28 11:52:37;;;;;;;4.68;2.50;;;;;;;;;;4898151;29;20503;-79
2024/02/28 11:55:08;;;;;;;6.40;3.00;;;;;;;;;;4881229;29;20072;-82
2024/02/28 11:57:39;;;;;;;7.15;3.08;;;;;;;;;;4878440;29;20060;-83
2024/02/28 12:00:12;;;;;;;7.78;3.05;;;;;;;;;;4881513;29;20064;-79
2024/02/28 12:02:43;;;;;;;7.20;3.35;;;;;;;;;;4897348;29;20053;-80
2024/02/28 12:05:13;;;;;;;9.73;4.20;;;;;;;;;;4897983;29;20055;-79
2024/02/28 12:07:43;;;;;;;12.18;6.28;;;;;;;;;;4898096;29;20504;-78
2024/02/28 12:10:13;;;;;;;20.15;9.95;;;;;;;;;;4895953;29;20071;-80
2024/02/28 12:12:45;;;;;;;15.80;7.10;;;;;;;;;;4897841;29;20047;-80
2024/02/28 12:15:17;;;;;;;11.70;5.78;;;;;;;;;;4898215;29;20045;-79
2024/02/28 12:17:47;;;;;;;13.70;6.18;;;;;;;;;;4897469;29;20044;-80
2024/02/28 12:20:17;;;;;;;17.20;6.57;;;;;;;;;;4898026;29;20056;-80
2024/02/28 12:22:47;;;;;;;8.68;4.13;;;;;;;;;;4896916;29;20044;-82
2024/02/28 12:25:18;;;;;;;16.25;7.68;;;;;;;;;;4896885;29;20060;-81
2024/02/28 12:27:48;;;;;;;14.50;6.72;;;;;;;;;;4897894;29;20361;-80
2024/02/28 12:30:18;;;;;;;35.33;15.18;;;;;;;;;;4898341;29;20052;-80
2024/02/28 12:32:48;;;;;;;16.27;6.10;;;;;;;;;;4896387;29;20052;-83
2024/02/28 12:35:18;;;;;;;19.17;12.27;;;;;;;;;;4897242;29;20052;-82
2024/02/28 12:37:48;;;;;;;13.77;6.45;;;;;;;;;;4897528;29;20045;-80
2024/02/28 12:40:18;;;;;;;25.55;13.93;;;;;;;;;;4896633;29;20052;-80
2024/02/28 12:42:48;;;;;;;13.32;5.45;;;;;;;;;;4897000;29;20041;-79
2024/02/28 12:45:18;;;;;;;17.60;6.30;;;;;;;;;;4897520;29;20049;-79
2024/02/28 12:47:49;;;;;;;15.00;7.53;;;;;;;;;;4896624;29;20051;-81
2024/02/28 12:50:21;;;;;;;17.27;7.65;;;;;;;;;;4896131;29;20057;-78
2024/02/28 12:52:53;;;;;;;12.63;5.55;;;;;;;;;;4895700;29;20039;-80
2024/02/28 12:55:24;;;;;;;15.60;6.53;;;;;;;;;;4897366;29;20048;-82
2024/02/28 12:57:55;;;;;;;18.98;7.47;;;;;;;;;;4894902;29;20504;-80
2024/02/28 13:00:25;;;;;;;19.15;9.15;;;;;;;;;;4896951;29;20049;-80
2024/02/28 13:02:55;;;;;;;14.25;5.90;;;;;;;;;;4895407;29;20061;-83
2024/02/28 13:05:25;;;;;;;13.57;5.97;;;;;;;;;;4897466;29;20052;-79
2024/02/28 13:08:00;;;;;;;12.25;5.78;;;;;;;;;;4896920;29;20044;-79
2024/02/28 13:10:30;;;;;;;14.70;5.35;;;;;;;;;;4897609;29;20082;-80
2024/02/28 13:13:01;;;;;;;15.82;6.53;;;;;;;;;;4897294;29;20664;-82
2024/02/28 13:15:32;;;;;;;12.75;5.88;;;;;;;;;;4897009;29;20488;-81
2024/02/28 13:18:07;;;;;;;14.05;5.35;;;;;;;;;;4895189;29;20052;-82
2024/02/28 13:20:39;;;;;;;10.82;5.22;;;;;;;;;;4895569;29;20052;-81
2024/02/28 13:23:09;;;;;;;20.00;5.60;;;;;;;;;;4893706;29;20049;-79
2024/02/28 13:25:41;;;;;;;13.30;4.97;;;;;;;;;;4895158;29;20048;-80
2024/02/28 13:28:11;;;;;;;10.60;4.28;;;;;;;;;;4896680;29;20411;-79
2024/02/28 13:30:43;;;;;;;8.82;4.38;;;;;;;;;;4894365;29;20052;-80
2024/02/28 13:33:14;;;;;;;8.65;3.75;;;;;;;;;;4896917;29;20049;-80
2024/02/28 13:35:44;;;;;;;9.13;3.75;;;;;;;;;;4894784;29;20503;-82
2024/02/28 13:38:15;;;;;;;11.73;3.95;;;;;;;;;;4896593;29;20075;-79
2024/02/28 13:40:46;;;;;;;10.70;3.28;;;;;;;;;;4893484;29;20056;-78
2024/02/28 13:43:18;;;;;;;10.20;3.47;;;;;;;;;;4895403;29;20515;-81
2024/02/28 13:45:51;;;;;;;8.32;3.38;;;;;;;;;;4896884;29;20075;-79
2024/02/28 13:48:31;;;;;;;9.02;3.20;;;;;;;;;;4898627;29;20037;-81
2024/02/28 13:51:04;;;;;;;6.78;3.15;;;;;;;;;;4888696;29;20043;-81
2024/02/28 13:53:35;;;;;;;8.38;3.30;;;;;;;;;;4900342;29;20056;-84
2024/02/28 13:56:06;;;;;;;8.02;2.60;;;;;;;;;;4900212;29;20049;-80
2024/02/28 13:58:37;;;;;;;5.63;2.63;;;;;;;;;;4899245;29;20051;-79
2024/02/28 14:01:22;;;;;;;8.35;2.55;;;;;;;;;;4898981;29;20052;-81
2024/02/28 14:03:53;;;;;;;5.53;2.70;;;;;;;;;;4899576;29;20044;-80
2024/02/28 14:06:25;;;;;;;7.55;2.30;;;;;;;;;;4898781;29;20633;-80
2024/02/28 14:08:55;;;;;;;7.60;2.45;;;;;;;;;;4900282;29;20055;-83
2024/02/28 14:11:26;;;;;;;6.22;2.25;;;;;;;;;;4882503;29;20057;-79
2024/02/28 14:13:57;;;;;;;3.55;2.15;;;;;;;;;;4899475;29;20040;-83
2024/02/28 14:16:27;;;;;;;6.75;3.03;;;;;;;;;;4901022;29;20049;-80
2024/02/28 14:18:57;;;;;;;7.82;2.20;;;;;;;;;;4900533;29;20049;-82
2024/02/28 14:21:27;;;;;;;5.43;2.63;;;;;;;;;;4901324;29;20443;-79
2024/02/28 14:23:57;;;;;;;8.20;2.22;;;;;;;;;;4882198;29;20064;-79
2024/02/28 14:26:28;;;;;;;7.47;2.17;;;;;;;;;;4900446;29;20059;-78
2024/02/28 14:28:58;;;;;;;4.65;2.03;;;;;;;;;;4901741;29;20044;-77
2024/02/28 14:31:28;;;;;;;3.53;1.83;;;;;;;;;;4899159;29;20055;-79
2024/02/28 14:33:59;;;;;;;3.75;1.88;;;;;;;;;;4882599;29;20059;-83
2024/02/28 14:36:29;;;;;;;2.85;1.75;;;;;;;;;;4899181;29;20045;-82
2024/02/28 14:38:59;;;;;;;5.65;1.83;;;;;;;;;;4898643;29;20511;-81
2024/02/28 14:41:31;;;;;;;4.40;2.35;;;;;;;;;;4904031;29;20052;-80
2024/02/28 14:44:02;;;;;;;4.50;2.08;;;;;;;;;;4917987;29;20044;-80
2024/02/28 14:46:32;;;;;;;4.72;1.73;;;;;;;;;;4918870;29;20055;-80
2024/02/28 14:49:02;;;;;;;3.35;1.75;;;;;;;;;;4913128;29;20067;-81
2024/02/28 14:51:34;;;;;;;2.95;1.52;;;;;;;;;;4904438;29;20047;-82
2024/02/28 14:54:09;;;;;;;3.63;1.73;;;;;;;;;;4899728;29;20049;-82
2024/02/28 14:56:41;;;;;;;3.53;1.95;;;;;;;;;;4902655;29;20056;-83
2024/02/28 14:59:11;;;;;;;4.25;1.58;;;;;;;;;;4887653;29;20052;-84
2024/02/28 15:01:41;;;;;;;4.30;1.50;;;;;;;;;;4899881;29;20071;-81